createdAt,value
2019-04-16T00:02:02.448Z,100989.06
2019-04-16T00:07:24.039Z,100994.09
2019-04-16T00:12:45.926Z,100991.84
2019-04-16T00:17:49.595Z,100987.82
2019-04-16T00:22:57.694Z,100976.05
2019-04-16T00:28:01.254Z,100969.98
2019-04-16T00:33:07.515Z,100973.48
2019-04-16T00:38:10.178Z,100976.69
2019-04-16T00:43:13.977Z,100972.84
2019-04-16T00:48:17.524Z,100974.90
2019-04-16T00:53:21.137Z,100968.54
2019-04-16T00:58:24.917Z,100971.30
2019-04-16T01:03:28.488Z,100965.63
2019-04-16T01:08:32.524Z,100968.34
2019-04-16T01:13:36.139Z,100966.94
2019-04-16T01:18:40.022Z,100964.40
2019-04-16T01:23:48.430Z,100964.75
2019-04-16T01:28:50.504Z,100974.45
2019-04-16T01:33:58.635Z,100962.94
2019-04-16T01:39:16.003Z,100962.94
2019-04-16T01:44:09.455Z,100969.63
2019-04-16T01:49:13.022Z,100970.41
2019-04-16T01:54:16.634Z,100971.92
2019-04-16T01:59:20.223Z,100971.77
2019-04-16T02:04:23.958Z,100980.01
2019-04-16T02:09:27.486Z,100982.48
2019-04-16T02:14:31.075Z,100984.50
2019-04-16T02:19:36.126Z,100986.97
2019-04-16T02:24:39.715Z,100984.72
2019-04-16T02:29:43.298Z,100981.41
2019-04-16T02:34:46.875Z,100988.41
2019-04-16T02:39:50.496Z,100987.80
2019-04-16T02:44:54.082Z,100991.06
2019-04-16T02:49:58.615Z,100990.07
2019-04-16T02:55:09.571Z,100988.38
2019-04-16T03:00:17.585Z,100984.28
2019-04-16T03:05:20.541Z,100988.29
2019-04-16T03:10:24.162Z,100986.69
2019-04-16T03:15:45.788Z,100996.71
2019-04-16T03:20:52.482Z,100996.31
2019-04-16T03:25:55.601Z,101001.02
2019-04-16T03:30:59.199Z,100994.05
2019-04-16T03:36:02.801Z,100998.09
2019-04-16T03:41:06.386Z,101006.39
2019-04-16T03:46:12.767Z,101002.17
2019-04-16T03:51:15.299Z,101003.79
2019-04-16T03:56:18.888Z,101000.78
2019-04-16T04:01:22.558Z,100999.68
2019-04-16T04:06:26.540Z,101009.17
2019-04-16T04:11:30.149Z,101014.08
2019-04-16T04:16:34.478Z,101008.98
2019-04-16T04:21:38.121Z,101006.64
2019-04-16T04:26:42.431Z,101008.94
2019-04-16T04:31:46.371Z,101010.52
2019-04-16T04:36:49.928Z,101023.64
2019-04-16T04:41:56.542Z,101026.67
2019-04-16T04:46:58.836Z,101027.70
2019-04-16T04:52:02.442Z,101036.05
2019-04-16T04:57:06.003Z,101037.68
2019-04-16T05:02:10.545Z,101041.59
2019-04-16T05:07:16.497Z,101043.11
2019-04-16T05:12:21.311Z,101040.42
2019-04-16T05:17:26.946Z,101044.84
2019-04-16T05:22:32.953Z,101047.60
2019-04-16T05:27:40.121Z,101038.15
2019-04-16T05:32:41.154Z,101060.56
2019-04-16T05:37:44.703Z,101057.91
2019-04-16T05:42:48.290Z,101052.86
2019-04-16T05:47:51.905Z,101046.98
2019-04-16T05:52:55.504Z,101060.92
2019-04-16T05:57:59.383Z,101057.16
2019-04-16T06:03:03.031Z,101063.59
2019-04-16T06:08:10.520Z,101066.50
2019-04-16T06:13:31.078Z,101077.20
2019-04-16T06:18:42.498Z,101067.68
2019-04-16T06:23:48.366Z,101061.73
2019-04-16T06:29:00.143Z,101056.08
2019-04-16T06:34:09.571Z,101065.63
2019-04-16T06:39:31.189Z,101063.75
2019-04-16T06:44:36.354Z,101066.00
2019-04-16T06:49:50.955Z,101062.97
2019-04-16T06:54:54.379Z,101070.39
2019-04-16T07:00:03.523Z,101073.02
2019-04-16T07:05:09.523Z,101071.75
2019-04-16T07:10:14.669Z,101070.29
2019-04-16T07:15:22.793Z,101090.50
2019-04-16T07:20:23.932Z,101063.80
2019-04-16T07:25:29.300Z,101065.18
2019-04-16T07:30:38.483Z,101074.91
2019-04-16T07:35:41.326Z,101063.63
2019-04-16T07:40:58.817Z,101067.58
2019-04-16T07:46:20.259Z,101077.20
2019-04-16T07:51:35.766Z,101076.55
2019-04-16T07:56:37.853Z,101069.36
2019-04-16T08:01:44.065Z,101066.27
2019-04-16T08:06:47.401Z,101064.94
2019-04-16T08:11:51.127Z,101063.57
2019-04-16T08:16:54.689Z,101044.14
2019-04-16T08:21:58.399Z,101058.11
2019-04-16T08:27:02.298Z,101060.05
2019-04-16T08:32:06.003Z,101064.14
2019-04-16T08:37:09.588Z,101059.53
2019-04-16T08:42:13.199Z,101056.20
2019-04-16T08:47:16.771Z,101067.69
2019-04-16T08:52:20.345Z,101055.73
2019-04-16T08:57:23.964Z,101061.17
2019-04-16T09:02:28.043Z,101060.05
2019-04-16T09:07:41.041Z,101054.80
2019-04-16T09:12:50.791Z,101047.06
2019-04-16T09:17:51.266Z,101046.78
2019-04-16T09:22:54.829Z,101050.11
2019-04-16T09:28:17.658Z,101052.77
2019-04-16T09:33:14.588Z,101042.28
2019-04-16T09:38:19.727Z,101045.98
2019-04-16T09:43:24.955Z,101044.09
2019-04-16T09:48:28.489Z,101035.39
2019-04-16T09:53:34.034Z,101052.23
2019-04-16T09:58:38.068Z,101040.69
2019-04-16T10:03:44.284Z,101049.91
2019-04-16T10:08:47.908Z,101027.02
2019-04-16T10:13:51.536Z,101039.56
2019-04-16T10:18:55.128Z,101026.95
2019-04-16T10:24:09.302Z,101024.70
2019-04-16T10:29:14.473Z,101037.13
2019-04-16T10:34:18.511Z,101025.97
2019-04-16T10:39:23.974Z,101027.63
2019-04-16T10:44:44.587Z,101021.74
2019-04-16T10:49:55.703Z,101015.05
2019-04-16T10:55:00.904Z,101014.58
2019-04-16T11:00:26.709Z,101003.52
2019-04-16T11:05:47.215Z,101010.59
2019-04-16T11:10:51.068Z,101001.78
2019-04-16T11:15:56.406Z,100998.17
2019-04-16T11:21:00.387Z,100990.73
2019-04-16T11:26:06.214Z,101000.50
2019-04-16T11:31:11.417Z,100991.86
2019-04-16T11:36:19.846Z,100995.41
2019-04-16T11:41:20.344Z,100992.25
2019-04-16T11:46:24.274Z,100984.05
2019-04-16T11:51:27.828Z,100994.92
2019-04-16T11:56:31.508Z,100982.55
2019-04-16T12:01:39.455Z,100977.27
2019-04-16T12:06:47.600Z,100973.23
2019-04-16T12:11:55.364Z,100977.73
2019-04-16T12:17:00.493Z,100968.27
2019-04-16T12:22:17.814Z,100968.52
2019-04-16T12:27:35.542Z,100967.73
2019-04-16T12:32:43.760Z,100960.33
2019-04-16T12:38:05.291Z,100948.39
2019-04-16T12:43:14.732Z,100946.85
2019-04-16T12:48:17.582Z,100951.41
2019-04-16T12:53:22.981Z,100937.09
2019-04-16T12:58:31.212Z,100935.97
2019-04-16T13:03:36.482Z,100937.08
2019-04-16T13:08:56.722Z,100932.37
2019-04-16T13:14:01.863Z,100933.86
2019-04-16T13:19:07.065Z,100931.94
2019-04-16T13:24:12.228Z,100933.94
2019-04-16T13:29:17.455Z,100925.06
2019-04-16T13:34:21.189Z,100920.31
2019-04-16T13:39:26.317Z,100910.81
2019-04-16T13:44:37.617Z,100925.98
2019-04-16T13:49:44.708Z,100922.14
2019-04-16T13:55:09.903Z,100912.63
2019-04-16T14:00:16.248Z,100914.81
2019-04-16T14:05:19.879Z,100907.59
2019-04-16T14:10:24.025Z,100912.56
2019-04-16T14:15:32.368Z,100903.08
2019-04-16T14:20:35.027Z,100911.95
2019-04-16T14:25:38.656Z,100911.78
2019-04-16T14:30:43.851Z,100907.66
2019-04-16T14:35:47.792Z,100909.62
2019-04-16T14:40:51.672Z,100901.37
2019-04-16T14:45:59.782Z,100902.97
2019-04-16T14:51:02.141Z,100891.49
2019-04-16T14:56:07.285Z,100884.95
2019-04-16T15:01:18.464Z,100890.55
2019-04-16T15:06:26.424Z,100887.55
2019-04-16T15:11:34.558Z,100895.92
2019-04-16T15:16:39.907Z,100893.08
2019-04-16T15:21:48.161Z,100889.91
2019-04-16T15:26:53.541Z,100895.91
2019-04-16T15:32:16.912Z,100895.20
2019-04-16T15:37:25.687Z,100894.56
2019-04-16T15:42:48.146Z,100886.50
2019-04-16T15:47:59.505Z,100888.34
2019-04-16T15:53:04.948Z,100890.31
2019-04-16T15:58:26.488Z,100892.14
2019-04-16T16:03:31.622Z,100904.95
2019-04-16T16:08:45.817Z,100900.49
2019-04-16T16:13:49.436Z,100902.87
2019-04-16T16:18:53.132Z,100902.33
2019-04-16T16:23:56.842Z,100907.76
2019-04-16T16:29:00.583Z,100903.73
2019-04-16T16:34:08.517Z,100902.25
2019-04-16T16:39:10.634Z,100915.75
2019-04-16T16:44:14.520Z,100913.23
2019-04-16T16:49:18.618Z,100923.22
2019-04-16T16:54:23.800Z,100921.18
2019-04-16T16:59:29.272Z,100916.97
2019-04-16T17:04:34.401Z,100919.89
2019-04-16T17:09:38.080Z,100923.66
2019-04-16T17:14:41.747Z,100925.69
2019-04-16T17:19:45.325Z,100926.69
2019-04-16T17:24:49.182Z,100940.02
2019-04-16T17:29:52.869Z,100934.89
2019-04-16T17:34:56.650Z,100938.36
2019-04-16T17:40:02.093Z,100951.13
2019-04-16T17:45:24.505Z,100950.70
2019-04-16T17:50:33.041Z,100963.39
2019-04-16T17:55:47.257Z,100963.45
2019-04-16T18:01:01.835Z,100969.01
2019-04-16T18:06:10.208Z,100976.06
2019-04-16T18:11:27.828Z,100992.19
2019-04-16T18:16:33.039Z,101000.35
2019-04-16T18:21:38.260Z,101006.34
2019-04-16T18:26:59.903Z,101014.34
2019-04-16T18:32:05.089Z,101020.42
2019-04-16T18:37:28.526Z,101026.98
2019-04-16T18:42:50.683Z,101034.22
2019-04-16T18:48:04.857Z,101040.28
2019-04-16T18:53:02.975Z,101043.80
2019-04-16T18:58:07.811Z,101045.11
2019-04-16T19:03:15.794Z,101054.55
2019-04-16T19:08:20.049Z,101059.78
2019-04-16T19:13:25.899Z,101061.36
2019-04-16T19:18:30.494Z,101065.02
2019-04-16T19:23:35.169Z,101070.41
2019-04-16T19:28:40.378Z,101081.91
2019-04-16T19:33:45.288Z,101082.61
2019-04-16T19:38:50.037Z,101088.14
2019-04-16T19:43:53.848Z,101094.26
2019-04-16T19:49:00.435Z,101096.67
2019-04-16T19:54:02.705Z,101104.84
2019-04-16T19:59:06.410Z,101108.84
2019-04-16T20:04:11.009Z,101117.61
2019-04-16T20:09:14.791Z,101110.53
2019-04-16T20:14:18.400Z,101119.61
2019-04-16T20:19:21.975Z,101117.11
2019-04-16T20:24:25.545Z,101121.57
2019-04-16T20:29:29.153Z,101119.44
2019-04-16T20:39:54.228Z,101117.53
2019-04-16T20:44:57.796Z,101119.59
2019-04-16T20:50:04.216Z,101124.40
2019-04-16T20:55:08.923Z,101117.80
2019-04-16T21:00:14.111Z,101121.69
2019-04-16T21:05:22.455Z,101127.56
2019-04-16T21:10:23.191Z,101133.07
2019-04-16T21:15:27.409Z,101135.41
2019-04-16T21:20:32.047Z,101133.38
2019-04-16T21:25:35.666Z,101145.98
2019-04-16T21:30:42.884Z,101150.09
2019-04-16T21:35:55.740Z,101159.21
2019-04-16T21:40:59.654Z,101163.05
2019-04-16T21:46:03.376Z,101165.83
2019-04-16T21:51:07.707Z,101168.66
2019-04-16T21:56:11.397Z,101166.88
2019-04-16T22:01:32.786Z,101167.50
2019-04-16T22:06:36.983Z,101173.70
2019-04-16T22:11:43.535Z,101167.02
2019-04-16T22:16:45.925Z,101179.45
2019-04-16T22:21:49.650Z,101172.46
2019-04-16T22:26:53.839Z,101175.41
2019-04-16T22:31:58.257Z,101177.19
2019-04-16T22:37:02.765Z,101180.94
2019-04-16T22:42:08.048Z,101184.36
2019-04-16T22:47:15.988Z,101188.69
2019-04-16T22:52:19.587Z,101192.52
2019-04-16T22:57:23.172Z,101187.45
2019-04-16T23:02:28.319Z,101187.88
2019-04-16T23:07:31.976Z,101176.84
2019-04-16T23:12:35.929Z,101173.71
2019-04-16T23:17:39.542Z,101170.20
2019-04-16T23:22:43.632Z,101174.06
2019-04-16T23:27:47.024Z,101178.58
2019-04-16T23:32:49.989Z,101185.06
2019-04-16T23:37:58.076Z,101186.84
2019-04-16T23:42:59.052Z,101175.95
2019-04-16T23:48:20.208Z,101178.42
2019-04-16T23:53:24.690Z,101171.88
2019-04-16T23:58:29.869Z,101166.24
